Camden, Alabama
Current Conditions -  °F | °C
As of 5:56 AM on Sunday 25 Jan 2015 (Local Time) from KPRN Reporting Station
Clear Clear  
Wind Chill: 31°   Ceiling: Unl
Heat Index: 31°   Visibility: 10mi
Dew Point: 28°   Wind: 0mph
Humidity: 89%   Direction: NA
Pressure: 30"   Gusts: NA
Location:  31.99°N, 87.29°W
Report Text: KPRN 251156Z AUTO 00000KT 10SM CLR M01/M02 A3000 RMK AO2 SLP160 T10061022 10011 21017 58007 FZRANO
Loading
Personal Weather Stations






























Interactive Weather Map New forecast layout! Learn more

10-Day Weather Forecast

Advertisements
Track Severe Weather on mobile